<?xml version="1.0" encoding="UTF-8" standalone="no" ?>
<gpx xmlns="http://www.topografix.com/GPX/1/1" xmlns:xsi="http://www.w3.org/2001/XMLSchema-instance" xsi:schemaLocation="http://www.topografix.com/GPX/1/1 http://www.topografix.com/GPX/1/1/gpx.xsd" version="1.1" creator="VisuGPX - https://www.visugpx.com">
  <metadata>
    <name>Col de Balafrasse</name>
  </metadata>
  <trk>
    <name><![CDATA[2017-02-19-01]]></name>
    <extensions>
      <line xmlns="http://www.topografix.com/GPX/gpx_style/0/2">
        <color>0000FF</color>
        <width>4</width>
      </line>
    </extensions>
    <trkseg>
      <trkpt lat="45.97649" lon="6.46051">
        <ele>1327.8</ele>
        <time>2017-02-19T08:12:46Z</time>
      </trkpt>
      <trkpt lat="45.97649" lon="6.46051">
        <ele>1327.8</ele>
        <time>2017-02-19T08:12:47Z</time>
      </trkpt>
      <trkpt lat="45.97693" lon="6.46069">
        <ele>1322.7</ele>
        <time>2017-02-19T08:15:36Z</time>
      </trkpt>
      <trkpt lat="45.97686" lon="6.46134">
        <ele>1316.1</ele>
        <time>2017-02-19T08:16:21Z</time>
      </trkpt>
      <trkpt lat="45.97716" lon="6.46182">
        <ele>1328.8</ele>
        <time>2017-02-19T08:17:24Z</time>
      </trkpt>
      <trkpt lat="45.9776" lon="6.46198">
        <ele>1335.7</ele>
        <time>2017-02-19T08:18:11Z</time>
      </trkpt>
      <trkpt lat="45.97805" lon="6.46211">
        <ele>1341.3</ele>
        <time>2017-02-19T08:18:54Z</time>
      </trkpt>
      <trkpt lat="45.97848" lon="6.46227">
        <ele>1347.2</ele>
        <time>2017-02-19T08:19:36Z</time>
      </trkpt>
      <trkpt lat="45.97878" lon="6.46276">
        <ele>1359.1</ele>
        <time>2017-02-19T08:20:24Z</time>
      </trkpt>
      <trkpt lat="45.97898" lon="6.46335">
        <ele>1366.9</ele>
        <time>2017-02-19T08:21:13Z</time>
      </trkpt>
      <trkpt lat="45.97931" lon="6.46378">
        <ele>1377</ele>
        <time>2017-02-19T08:22:04Z</time>
      </trkpt>
      <trkpt lat="45.97972" lon="6.46407">
        <ele>1381.4</ele>
        <time>2017-02-19T08:22:49Z</time>
      </trkpt>
      <trkpt lat="45.98015" lon="6.46427">
        <ele>1391.5</ele>
        <time>2017-02-19T08:23:39Z</time>
      </trkpt>
      <trkpt lat="45.98058" lon="6.46447">
        <ele>1396.7</ele>
        <time>2017-02-19T08:24:26Z</time>
      </trkpt>
      <trkpt lat="45.98102" lon="6.46465">
        <ele>1406.7</ele>
        <time>2017-02-19T08:25:16Z</time>
      </trkpt>
      <trkpt lat="45.98145" lon="6.46486">
        <ele>1418.6</ele>
        <time>2017-02-19T08:26:10Z</time>
      </trkpt>
      <trkpt lat="45.98188" lon="6.46505">
        <ele>1428.6</ele>
        <time>2017-02-19T08:27:03Z</time>
      </trkpt>
      <trkpt lat="45.98232" lon="6.4652">
        <ele>1438.1</ele>
        <time>2017-02-19T08:27:56Z</time>
      </trkpt>
      <trkpt lat="45.98277" lon="6.46525">
        <ele>1449.4</ele>
        <time>2017-02-19T08:28:52Z</time>
      </trkpt>
      <trkpt lat="45.98321" lon="6.4654">
        <ele>1452.8</ele>
        <time>2017-02-19T08:29:33Z</time>
      </trkpt>
      <trkpt lat="45.98366" lon="6.46554">
        <ele>1456.8</ele>
        <time>2017-02-19T08:30:11Z</time>
      </trkpt>
      <trkpt lat="45.9841" lon="6.46569">
        <ele>1460.3</ele>
        <time>2017-02-19T08:30:49Z</time>
      </trkpt>
      <trkpt lat="45.98454" lon="6.46587">
        <ele>1465.4</ele>
        <time>2017-02-19T08:31:29Z</time>
      </trkpt>
      <trkpt lat="45.98498" lon="6.46601">
        <ele>1469.4</ele>
        <time>2017-02-19T08:32:07Z</time>
      </trkpt>
      <trkpt lat="45.9854" lon="6.46626">
        <ele>1474.5</ele>
        <time>2017-02-19T08:32:46Z</time>
      </trkpt>
      <trkpt lat="45.98578" lon="6.46663">
        <ele>1479.6</ele>
        <time>2017-02-19T08:33:27Z</time>
      </trkpt>
      <trkpt lat="45.9861" lon="6.46711">
        <ele>1482.8</ele>
        <time>2017-02-19T08:34:07Z</time>
      </trkpt>
      <trkpt lat="45.98636" lon="6.46764">
        <ele>1487.3</ele>
        <time>2017-02-19T08:34:47Z</time>
      </trkpt>
      <trkpt lat="45.98658" lon="6.46821">
        <ele>1491.4</ele>
        <time>2017-02-19T08:35:28Z</time>
      </trkpt>
      <trkpt lat="45.98681" lon="6.46877">
        <ele>1495.1</ele>
        <time>2017-02-19T08:36:07Z</time>
      </trkpt>
      <trkpt lat="45.98705" lon="6.46933">
        <ele>1499.3</ele>
        <time>2017-02-19T08:36:46Z</time>
      </trkpt>
      <trkpt lat="45.98731" lon="6.46987">
        <ele>1503.4</ele>
        <time>2017-02-19T08:37:27Z</time>
      </trkpt>
      <trkpt lat="45.98758" lon="6.47039">
        <ele>1507.5</ele>
        <time>2017-02-19T08:38:10Z</time>
      </trkpt>
      <trkpt lat="45.98787" lon="6.4709">
        <ele>1517.3</ele>
        <time>2017-02-19T08:38:58Z</time>
      </trkpt>
      <trkpt lat="45.98807" lon="6.47149">
        <ele>1522.4</ele>
        <time>2017-02-19T08:39:38Z</time>
      </trkpt>
      <trkpt lat="45.98818" lon="6.47213">
        <ele>1521.7</ele>
        <time>2017-02-19T08:40:28Z</time>
      </trkpt>
      <trkpt lat="45.98856" lon="6.47249">
        <ele>1539.4</ele>
        <time>2017-02-19T08:41:34Z</time>
      </trkpt>
      <trkpt lat="45.98893" lon="6.47286">
        <ele>1550.5</ele>
        <time>2017-02-19T08:42:26Z</time>
      </trkpt>
      <trkpt lat="45.9893" lon="6.47325">
        <ele>1560.8</ele>
        <time>2017-02-19T08:43:11Z</time>
      </trkpt>
      <trkpt lat="45.98971" lon="6.47352">
        <ele>1566.3</ele>
        <time>2017-02-19T08:44:01Z</time>
      </trkpt>
      <trkpt lat="45.99016" lon="6.47355">
        <ele>1574</ele>
        <time>2017-02-19T08:44:47Z</time>
      </trkpt>
      <trkpt lat="45.99058" lon="6.47379">
        <ele>1582.3</ele>
        <time>2017-02-19T08:45:33Z</time>
      </trkpt>
      <trkpt lat="45.99092" lon="6.47423">
        <ele>1589.5</ele>
        <time>2017-02-19T08:46:14Z</time>
      </trkpt>
      <trkpt lat="45.99128" lon="6.47462">
        <ele>1596.2</ele>
        <time>2017-02-19T08:46:57Z</time>
      </trkpt>
      <trkpt lat="45.99169" lon="6.4749">
        <ele>1603</ele>
        <time>2017-02-19T08:47:41Z</time>
      </trkpt>
      <trkpt lat="45.99211" lon="6.47516">
        <ele>1608.3</ele>
        <time>2017-02-19T08:48:29Z</time>
      </trkpt>
      <trkpt lat="45.99224" lon="6.47453">
        <ele>1625.8</ele>
        <time>2017-02-19T08:52:20Z</time>
      </trkpt>
      <trkpt lat="45.99216" lon="6.47388">
        <ele>1641.6</ele>
        <time>2017-02-19T08:53:20Z</time>
      </trkpt>
      <trkpt lat="45.99219" lon="6.47324">
        <ele>1652.6</ele>
        <time>2017-02-19T08:54:17Z</time>
      </trkpt>
      <trkpt lat="45.99261" lon="6.47348">
        <ele>1663.8</ele>
        <time>2017-02-19T08:55:14Z</time>
      </trkpt>
      <trkpt lat="45.99293" lon="6.47393">
        <ele>1674.3</ele>
        <time>2017-02-19T08:56:09Z</time>
      </trkpt>
      <trkpt lat="45.99323" lon="6.47442">
        <ele>1683.4</ele>
        <time>2017-02-19T08:56:55Z</time>
      </trkpt>
      <trkpt lat="45.99362" lon="6.47475">
        <ele>1692.5</ele>
        <time>2017-02-19T08:57:42Z</time>
      </trkpt>
      <trkpt lat="45.99395" lon="6.47519">
        <ele>1699.2</ele>
        <time>2017-02-19T08:58:29Z</time>
      </trkpt>
      <trkpt lat="45.9943" lon="6.47559">
        <ele>1706.9</ele>
        <time>2017-02-19T08:59:15Z</time>
      </trkpt>
      <trkpt lat="45.99464" lon="6.47603">
        <ele>1715.6</ele>
        <time>2017-02-19T09:00:03Z</time>
      </trkpt>
      <trkpt lat="45.99509" lon="6.47604">
        <ele>1730</ele>
        <time>2017-02-19T09:01:09Z</time>
      </trkpt>
      <trkpt lat="45.99547" lon="6.4757">
        <ele>1742.4</ele>
        <time>2017-02-19T09:02:19Z</time>
      </trkpt>
      <trkpt lat="45.99593" lon="6.47566">
        <ele>1740.6</ele>
        <time>2017-02-19T09:02:55Z</time>
      </trkpt>
      <trkpt lat="45.99631" lon="6.47603">
        <ele>1731.5</ele>
        <time>2017-02-19T09:03:31Z</time>
      </trkpt>
      <trkpt lat="45.99671" lon="6.47634">
        <ele>1741.2</ele>
        <time>2017-02-19T09:04:21Z</time>
      </trkpt>
      <trkpt lat="45.99716" lon="6.47631">
        <ele>1750</ele>
        <time>2017-02-19T09:05:17Z</time>
      </trkpt>
      <trkpt lat="45.99762" lon="6.47629">
        <ele>1763</ele>
        <time>2017-02-19T09:06:14Z</time>
      </trkpt>
      <trkpt lat="45.99808" lon="6.47624">
        <ele>1768.9</ele>
        <time>2017-02-19T09:07:03Z</time>
      </trkpt>
      <trkpt lat="45.99849" lon="6.47652">
        <ele>1782.8</ele>
        <time>2017-02-19T09:08:20Z</time>
      </trkpt>
      <trkpt lat="45.99862" lon="6.47589">
        <ele>1803.8</ele>
        <time>2017-02-19T09:09:58Z</time>
      </trkpt>
      <trkpt lat="45.99869" lon="6.47524">
        <ele>1826.1</ele>
        <time>2017-02-19T09:11:47Z</time>
      </trkpt>
      <trkpt lat="45.99864" lon="6.4746">
        <ele>1840.9</ele>
        <time>2017-02-19T09:12:59Z</time>
      </trkpt>
      <trkpt lat="45.99882" lon="6.47399">
        <ele>1862.6</ele>
        <time>2017-02-19T09:14:44Z</time>
      </trkpt>
      <trkpt lat="45.99881" lon="6.47334">
        <ele>1880.2</ele>
        <time>2017-02-19T09:17:48Z</time>
      </trkpt>
      <trkpt lat="45.99883" lon="6.47269">
        <ele>1909.1</ele>
        <time>2017-02-19T09:19:53Z</time>
      </trkpt>
      <trkpt lat="45.99914" lon="6.47221">
        <ele>1935.4</ele>
        <time>2017-02-19T09:22:21Z</time>
      </trkpt>
      <trkpt lat="45.99938" lon="6.47166">
        <ele>1968.3</ele>
        <time>2017-02-19T09:25:47Z</time>
      </trkpt>
      <trkpt lat="45.99959" lon="6.47109">
        <ele>1999.6</ele>
        <time>2017-02-19T09:28:56Z</time>
      </trkpt>
      <trkpt lat="45.99974" lon="6.47048">
        <ele>2031</ele>
        <time>2017-02-19T09:31:32Z</time>
      </trkpt>
      <trkpt lat="45.99989" lon="6.46986">
        <ele>2049.9</ele>
        <time>2017-02-19T09:34:30Z</time>
      </trkpt>
      <trkpt lat="45.99994" lon="6.46921">
        <ele>2063.2</ele>
        <time>2017-02-19T09:35:31Z</time>
      </trkpt>
      <trkpt lat="46.00011" lon="6.4686">
        <ele>2076.6</ele>
        <time>2017-02-19T09:36:29Z</time>
      </trkpt>
      <trkpt lat="46.00013" lon="6.46795">
        <ele>2078.5</ele>
        <time>2017-02-19T09:41:16Z</time>
      </trkpt>
      <trkpt lat="46.00001" lon="6.46733">
        <ele>2090.6</ele>
        <time>2017-02-19T09:42:11Z</time>
      </trkpt>
      <trkpt lat="46.00008" lon="6.46668">
        <ele>2108.7</ele>
        <time>2017-02-19T09:43:24Z</time>
      </trkpt>
      <trkpt lat="46.00018" lon="6.46604">
        <ele>2116.5</ele>
        <time>2017-02-19T09:44:27Z</time>
      </trkpt>
      <trkpt lat="46.00009" lon="6.46539">
        <ele>2135.1</ele>
        <time>2017-02-19T09:46:24Z</time>
      </trkpt>
      <trkpt lat="45.99989" lon="6.46481">
        <ele>2165</ele>
        <time>2017-02-19T09:48:48Z</time>
      </trkpt>
      <trkpt lat="45.9995" lon="6.46448">
        <ele>2193.1</ele>
        <time>2017-02-19T09:51:43Z</time>
      </trkpt>
      <trkpt lat="45.99983" lon="6.46405">
        <ele>2199.4</ele>
        <time>2017-02-19T09:53:34Z</time>
      </trkpt>
      <trkpt lat="46.00016" lon="6.4636">
        <ele>2204.6</ele>
        <time>2017-02-19T09:55:06Z</time>
      </trkpt>
      <trkpt lat="46.00053" lon="6.46322">
        <ele>2214.9</ele>
        <time>2017-02-19T09:56:30Z</time>
      </trkpt>
      <trkpt lat="46.00086" lon="6.46278">
        <ele>2236.3</ele>
        <time>2017-02-19T09:58:24Z</time>
      </trkpt>
      <trkpt lat="46.00047" lon="6.46317">
        <ele>2219.5</ele>
        <time>2017-02-19T10:20:39Z</time>
      </trkpt>
      <trkpt lat="46.00014" lon="6.46362">
        <ele>2205.2</ele>
        <time>2017-02-19T10:20:49Z</time>
      </trkpt>
      <trkpt lat="45.99982" lon="6.46409">
        <ele>2198.3</ele>
        <time>2017-02-19T10:20:58Z</time>
      </trkpt>
      <trkpt lat="45.99946" lon="6.46457">
        <ele>2190.7</ele>
        <time>2017-02-19T10:21:06Z</time>
      </trkpt>
      <trkpt lat="45.99905" lon="6.46487">
        <ele>2170.9</ele>
        <time>2017-02-19T10:23:03Z</time>
      </trkpt>
      <trkpt lat="45.99865" lon="6.46522">
        <ele>2135</ele>
        <time>2017-02-19T10:23:30Z</time>
      </trkpt>
      <trkpt lat="45.9982" lon="6.46533">
        <ele>2102.1</ele>
        <time>2017-02-19T10:23:58Z</time>
      </trkpt>
      <trkpt lat="45.99782" lon="6.46498">
        <ele>2096</ele>
        <time>2017-02-19T10:24:21Z</time>
      </trkpt>
      <trkpt lat="45.99745" lon="6.46542">
        <ele>2091</ele>
        <time>2017-02-19T10:24:39Z</time>
      </trkpt>
      <trkpt lat="45.99705" lon="6.46581">
        <ele>2107.4</ele>
        <time>2017-02-19T10:24:52Z</time>
      </trkpt>
      <trkpt lat="45.99672" lon="6.46627">
        <ele>2006.8</ele>
        <time>2017-02-19T10:25:47Z</time>
      </trkpt>
      <trkpt lat="45.99645" lon="6.4668">
        <ele>1962.4</ele>
        <time>2017-02-19T10:26:25Z</time>
      </trkpt>
      <trkpt lat="45.99598" lon="6.46696">
        <ele>1936.5</ele>
        <time>2017-02-19T10:26:50Z</time>
      </trkpt>
      <trkpt lat="45.99579" lon="6.46758">
        <ele>1926</ele>
        <time>2017-02-19T10:30:58Z</time>
      </trkpt>
      <trkpt lat="45.99593" lon="6.4682">
        <ele>1920.1</ele>
        <time>2017-02-19T10:31:19Z</time>
      </trkpt>
      <trkpt lat="45.99581" lon="6.46885">
        <ele>1890.6</ele>
        <time>2017-02-19T10:31:41Z</time>
      </trkpt>
      <trkpt lat="45.99549" lon="6.46932">
        <ele>1862.9</ele>
        <time>2017-02-19T10:32:00Z</time>
      </trkpt>
      <trkpt lat="45.99534" lon="6.46993">
        <ele>1830</ele>
        <time>2017-02-19T10:32:33Z</time>
      </trkpt>
      <trkpt lat="45.99499" lon="6.47034">
        <ele>1792.8</ele>
        <time>2017-02-19T10:33:33Z</time>
      </trkpt>
      <trkpt lat="45.99455" lon="6.4702">
        <ele>1772.6</ele>
        <time>2017-02-19T10:33:55Z</time>
      </trkpt>
      <trkpt lat="45.99411" lon="6.46991">
        <ele>1754.6</ele>
        <time>2017-02-19T10:34:11Z</time>
      </trkpt>
      <trkpt lat="45.99366" lon="6.46983">
        <ele>1740.6</ele>
        <time>2017-02-19T10:34:26Z</time>
      </trkpt>
      <trkpt lat="45.99333" lon="6.4703">
        <ele>1719.7</ele>
        <time>2017-02-19T11:05:57Z</time>
      </trkpt>
      <trkpt lat="45.99308" lon="6.47084">
        <ele>1701.3</ele>
        <time>2017-02-19T11:06:12Z</time>
      </trkpt>
      <trkpt lat="45.99315" lon="6.47156">
        <ele>1683.8</ele>
        <time>2017-02-19T11:06:22Z</time>
      </trkpt>
      <trkpt lat="45.99321" lon="6.4722">
        <ele>1679.3</ele>
        <time>2017-02-19T11:10:09Z</time>
      </trkpt>
      <trkpt lat="45.99297" lon="6.4728">
        <ele>1666.6</ele>
        <time>2017-02-19T11:10:21Z</time>
      </trkpt>
      <trkpt lat="45.99269" lon="6.47331">
        <ele>1664</ele>
        <time>2017-02-19T11:10:57Z</time>
      </trkpt>
      <trkpt lat="45.99234" lon="6.47371">
        <ele>1649.5</ele>
        <time>2017-02-19T11:11:16Z</time>
      </trkpt>
      <trkpt lat="45.9922" lon="6.47434">
        <ele>1627.1</ele>
        <time>2017-02-19T11:11:51Z</time>
      </trkpt>
      <trkpt lat="45.9923" lon="6.47497">
        <ele>1617.8</ele>
        <time>2017-02-19T11:12:01Z</time>
      </trkpt>
      <trkpt lat="45.99181" lon="6.475">
        <ele>1608.9</ele>
        <time>2017-02-19T11:12:15Z</time>
      </trkpt>
      <trkpt lat="45.99153" lon="6.47445">
        <ele>1596.4</ele>
        <time>2017-02-19T11:12:28Z</time>
      </trkpt>
      <trkpt lat="45.99123" lon="6.47395">
        <ele>1587.1</ele>
        <time>2017-02-19T11:12:35Z</time>
      </trkpt>
      <trkpt lat="45.9908" lon="6.47355">
        <ele>1580</ele>
        <time>2017-02-19T11:12:42Z</time>
      </trkpt>
      <trkpt lat="45.9904" lon="6.47324">
        <ele>1579.7</ele>
        <time>2017-02-19T11:12:53Z</time>
      </trkpt>
      <trkpt lat="45.9899" lon="6.47341">
        <ele>1572.7</ele>
        <time>2017-02-19T11:13:04Z</time>
      </trkpt>
      <trkpt lat="45.98942" lon="6.47343">
        <ele>1567.5</ele>
        <time>2017-02-19T11:13:15Z</time>
      </trkpt>
      <trkpt lat="45.98909" lon="6.47293">
        <ele>1555.1</ele>
        <time>2017-02-19T11:13:24Z</time>
      </trkpt>
      <trkpt lat="45.98863" lon="6.4727">
        <ele>1548.3</ele>
        <time>2017-02-19T11:13:40Z</time>
      </trkpt>
      <trkpt lat="45.98816" lon="6.47282">
        <ele>1540.3</ele>
        <time>2017-02-19T11:13:48Z</time>
      </trkpt>
      <trkpt lat="45.98781" lon="6.4724">
        <ele>1534.8</ele>
        <time>2017-02-19T11:13:55Z</time>
      </trkpt>
      <trkpt lat="45.98775" lon="6.47168">
        <ele>1530.6</ele>
        <time>2017-02-19T11:14:03Z</time>
      </trkpt>
      <trkpt lat="45.98753" lon="6.47105">
        <ele>1524.8</ele>
        <time>2017-02-19T11:14:12Z</time>
      </trkpt>
      <trkpt lat="45.98734" lon="6.47041">
        <ele>1514.8</ele>
        <time>2017-02-19T11:14:23Z</time>
      </trkpt>
      <trkpt lat="45.98718" lon="6.46976">
        <ele>1505.1</ele>
        <time>2017-02-19T11:14:31Z</time>
      </trkpt>
      <trkpt lat="45.98699" lon="6.46916">
        <ele>1499.8</ele>
        <time>2017-02-19T11:14:37Z</time>
      </trkpt>
      <trkpt lat="45.98671" lon="6.46853">
        <ele>1494.9</ele>
        <time>2017-02-19T11:14:44Z</time>
      </trkpt>
      <trkpt lat="45.98647" lon="6.46791">
        <ele>1490.8</ele>
        <time>2017-02-19T11:14:51Z</time>
      </trkpt>
      <trkpt lat="45.98622" lon="6.46734">
        <ele>1488</ele>
        <time>2017-02-19T11:14:58Z</time>
      </trkpt>
      <trkpt lat="45.98594" lon="6.46681">
        <ele>1483.5</ele>
        <time>2017-02-19T11:15:05Z</time>
      </trkpt>
      <trkpt lat="45.98557" lon="6.46638">
        <ele>1479</ele>
        <time>2017-02-19T11:15:12Z</time>
      </trkpt>
      <trkpt lat="45.98513" lon="6.46606">
        <ele>1474.7</ele>
        <time>2017-02-19T11:15:20Z</time>
      </trkpt>
      <trkpt lat="45.98464" lon="6.46591">
        <ele>1471.3</ele>
        <time>2017-02-19T11:15:28Z</time>
      </trkpt>
      <trkpt lat="45.98415" lon="6.46573">
        <ele>1465.8</ele>
        <time>2017-02-19T11:15:35Z</time>
      </trkpt>
      <trkpt lat="45.98367" lon="6.46559">
        <ele>1461.2</ele>
        <time>2017-02-19T11:15:41Z</time>
      </trkpt>
      <trkpt lat="45.98321" lon="6.46543">
        <ele>1456.8</ele>
        <time>2017-02-19T11:15:47Z</time>
      </trkpt>
      <trkpt lat="45.98275" lon="6.46529">
        <ele>1452.4</ele>
        <time>2017-02-19T11:16:06Z</time>
      </trkpt>
      <trkpt lat="45.98226" lon="6.46524">
        <ele>1443.5</ele>
        <time>2017-02-19T11:16:22Z</time>
      </trkpt>
      <trkpt lat="45.98177" lon="6.46514">
        <ele>1434.6</ele>
        <time>2017-02-19T11:16:33Z</time>
      </trkpt>
      <trkpt lat="45.98129" lon="6.46498">
        <ele>1426.2</ele>
        <time>2017-02-19T11:16:43Z</time>
      </trkpt>
      <trkpt lat="45.98085" lon="6.46472">
        <ele>1413.5</ele>
        <time>2017-02-19T11:16:55Z</time>
      </trkpt>
      <trkpt lat="45.98038" lon="6.46455">
        <ele>1405.8</ele>
        <time>2017-02-19T11:17:04Z</time>
      </trkpt>
      <trkpt lat="45.97992" lon="6.46436">
        <ele>1397.4</ele>
        <time>2017-02-19T11:17:20Z</time>
      </trkpt>
      <trkpt lat="45.97948" lon="6.46417">
        <ele>1389.5</ele>
        <time>2017-02-19T11:17:32Z</time>
      </trkpt>
      <trkpt lat="45.97906" lon="6.46388">
        <ele>1383.1</ele>
        <time>2017-02-19T11:17:57Z</time>
      </trkpt>
      <trkpt lat="45.9789" lon="6.46326">
        <ele>1369.6</ele>
        <time>2017-02-19T11:18:15Z</time>
      </trkpt>
      <trkpt lat="45.9787" lon="6.4626">
        <ele>1359.9</ele>
        <time>2017-02-19T11:18:33Z</time>
      </trkpt>
      <trkpt lat="45.97832" lon="6.46221">
        <ele>1349.5</ele>
        <time>2017-02-19T11:18:43Z</time>
      </trkpt>
      <trkpt lat="45.9779" lon="6.46196">
        <ele>1342.9</ele>
        <time>2017-02-19T11:18:52Z</time>
      </trkpt>
      <trkpt lat="45.97744" lon="6.46193">
        <ele>1336.5</ele>
        <time>2017-02-19T11:19:03Z</time>
      </trkpt>
      <trkpt lat="45.97699" lon="6.46174">
        <ele>1326.2</ele>
        <time>2017-02-19T11:19:24Z</time>
      </trkpt>
      <trkpt lat="45.97701" lon="6.46103">
        <ele>1315.5</ele>
        <time>2017-02-19T11:19:48Z</time>
      </trkpt>
      <trkpt lat="45.97672" lon="6.46053">
        <ele>1312.7</ele>
        <time>2017-02-19T11:20:02Z</time>
      </trkpt>
      <trkpt lat="45.97668" lon="6.46047">
        <ele>1308.4</ele>
        <time>2017-02-19T11:20:54Z</time>
      </trkpt>
    </trkseg>
  </trk>
</gpx>